Bill Jr — WCO6976 — position and weather

sailwx.info

Track history (hours):
 
Tides and Currents Weather Stations Pressure Air Temp Water Temp Dewpoint Dewpoint Depression Visibility Wind Speed Wind Dir Waves Ship Positions

Bill Jr

Owner: DAWSON VESSELS INC, MOBILE, AL. More information available from US FCC via Universal Licensing System and Coast Guard Vessel Documentation Center.

Last reported at 2017-Jan-04 19:13 UTC. Time now 2017-Mar-25 23:47 UTC.
Position N 29°58' W 090°15'.
Warning: this ship's position is months out of date.

Length 21 m.

MMSI: 366976750.

Date/timePositionNaut miles runAvg speedWind from/ knotsBaromVisibWave heightAir tempDewpointWater temp
2017-Jan-04 19:13N 29°58' W 090°15'0 0.1
2017-Jan-04 18:32N 29°58' W 090°15'3 1.3
2017-Jan-04 16:19N 29°56' W 090°13'2 2.6
2017-Jan-04 15:24N 29°57' W 090°10'2 1.5
2017-Jan-04 14:22N 29°57' W 090°08'0 0.3
2017-Jan-04 13:25N 29°57' W 090°08'2 2.6
2017-Jan-04 12:29N 29°56' W 090°11'4 3.8
2017-Jan-04 11:26N 29°58' W 090°15'0 0.1
2017-Jan-04 10:33N 29°58' W 090°15'0 0.0
2017-Jan-04 09:13N 29°58' W 090°15'0 0.1
2017-Jan-04 08:27N 29°58' W 090°15'1 0.3
2017-Jan-04 04:27N 29°58' W 090°14'0 0.0
2017-Jan-04 03:32N 29°58' W 090°14'1 0.3
2017-Jan-04 00:30N 29°58' W 090°15'1 0.5
2017-Jan-03 23:14N 29°58' W 090°14'0 0.1
2017-Jan-03 22:33N 29°58' W 090°14'1 0.9
2017-Jan-03 21:30N 29°58' W 090°15'0 0.5
2017-Jan-03 20:34N 29°58' W 090°15'0 0.1
2017-Jan-03 19:33N 29°58' W 090°15'0 0.0
2017-Jan-03 18:30N 29°58' W 090°15'1 0.5
2017-Jan-03 17:31N 29°58' W 090°15'0 0.0
2017-Jan-03 13:04N 29°58' W 090°15'0 0.2
2017-Jan-03 12:23N 29°58' W 090°15'0 0.0
2017-Jan-03 11:33N 29°58' W 090°15'0 0.0
2017-Jan-03 10:34N 29°58' W 090°15'0 0.0
2017-Jan-03 09:32N 29°58' W 090°15'0 0.0
2017-Jan-03 05:11N 29°58' W 090°15'0 0.2
2017-Jan-03 04:32N 29°58' W 090°15'0 0.2
2017-Jan-03 03:33N 29°58' W 090°15'0 0.1
2017-Jan-03 02:22N 29°58' W 090°15'3 3.9
2017-Jan-03 01:28N 29°56' W 090°12'3 1.4
2017-Jan-02 23:22N 29°56' W 090°08'3 3.2
2017-Jan-02 22:32N 29°56' W 090°11'4 4.3
2017-Jan-02 21:34N 29°58' W 090°15'0 0.3
2017-Jan-02 20:34N 29°58' W 090°15'0 0.2
2017-Jan-02 19:28N 29°58' W 090°15'0 0.0
2017-Jan-02 09:31N 29°58' W 090°15'1 0.1
2017-Jan-02 01:23N 29°58' W 090°14'2 2.8
2017-Jan-02 00:33N 29°56' W 090°13'4 3.8
2017-Jan-01 23:33N 29°57' W 090°09'1 0.3
2017-Jan-01 19:33N 29°56' W 090°08'2 1.5
2017-Jan-01 18:26N 29°57' W 090°10'4 4.2
2017-Jan-01 17:28N 29°58' W 090°15'1 0.5
2017-Jan-01 16:30N 29°58' W 090°14'0 0.3
2017-Jan-01 15:14N 29°58' W 090°14'0 0.2
2017-Jan-01 14:33N 29°58' W 090°14'1 0.6
2017-Jan-01 13:33N 29°58' W 090°15'0 0.0
2017-Jan-01 12:33N 29°58' W 090°15'0 0.0
2017-Jan-01 11:33N 29°58' W 090°15'0 0.5
2017-Jan-01 10:31N 29°58' W 090°15'0 0.1
2017-Jan-01 09:34N 29°58' W 090°14'0 0.0
2017-Jan-01 08:33N 29°58' W 090°14'0 0.0
2017-Jan-01 07:33N 29°58' W 090°14'0 0.0
2017-Jan-01 06:33N 29°58' W 090°14'0 0.0
2017-Jan-01 05:33N 29°58' W 090°14'1 0.1
2016-Dec-31 19:14N 29°58' W 090°15'0 0.1
2016-Dec-31 18:33N 29°58' W 090°15'0 0.0
2016-Dec-31 17:05N 29°58' W 090°15'0 0.0
2016-Dec-31 15:17N 29°58' W 090°15'1 0.8
2016-Dec-31 14:31N 29°58' W 090°14'1 0.6
2016-Dec-31 13:16N 29°58' W 090°15'1 0.4
2016-Dec-31 11:29N 29°58' W 090°14'1 0.0
2016-Dec-30 20:25N 29°58' W 090°15'1 0.1
2016-Dec-30 09:34N 29°57' W 090°14'0 0.2
2016-Dec-30 08:30N 29°57' W 090°14'1 0.8
2016-Dec-30 07:27N 29°58' W 090°15'0 0.3
2016-Dec-30 06:03N 29°58' W 090°15'0 0.4
2016-Dec-30 05:12N 29°58' W 090°15'1 0.1
2016-Dec-30 00:14N 29°58' W 090°15'2 1.8
2016-Dec-29 23:13N 29°57' W 090°14'1 0.4
2016-Dec-29 21:33N 29°58' W 090°14'0 0.0
2016-Dec-29 20:31N 29°58' W 090°14'0 0.1
2016-Dec-29 19:22N 29°58' W 090°14'0 0.5
2016-Dec-29 18:33N 29°57' W 090°14'0 0.2
2016-Dec-29 17:31N 29°57' W 090°14'0 0.1
2016-Dec-29 16:31N 29°57' W 090°14'1 1.3
2016-Dec-29 15:23N 29°58' W 090°15'0 0.5
2016-Dec-29 14:31N 29°58' W 090°14'0 0.5
2016-Dec-29 13:33N 29°58' W 090°15'0 0.1
2016-Dec-29 12:33N 29°58' W 090°15'2 1.8
2016-Dec-29 11:24N 29°56' W 090°13'2 1.9
2016-Dec-29 10:30N 29°58' W 090°14'1 0.3
2016-Dec-29 08:33N 29°57' W 090°14'1 0.2
2016-Dec-29 04:31N 29°58' W 090°14'0 0.1
2016-Dec-29 01:11N 29°58' W 090°14'1 1.0
2016-Dec-29 00:32N 29°58' W 090°15'0 0.1
2016-Dec-28 23:32N 29°58' W 090°15'0 0.2
2016-Dec-28 21:09N 29°58' W 090°14'0 0.1
2016-Dec-28 17:33N 29°58' W 090°15'0 0.2
2016-Dec-28 16:25N 29°58' W 090°15'0 0.0
2016-Dec-28 13:07N 29°58' W 090°15'0 0.0
2016-Dec-28 03:06N 29°58' W 090°15'0 0.0
2016-Dec-27 20:26N 29°58' W 090°15'4 3.5
2016-Dec-27 19:23N 29°56' W 090°12'3 0.2
2016-Dec-27 03:33N 29°57' W 090°08'6 3.7
2016-Dec-27 02:03N 29°58' W 090°15'0 0.0
2016-Dec-27 01:29N 29°58' W 090°15'  
Track history (hours):
 
Tides and Currents Weather Stations Pressure Air Temp Water Temp Dewpoint Dewpoint Depression Visibility Wind Speed Wind Dir Waves Ship Positions

Bill Jr

Owner: DAWSON VESSELS INC, MOBILE, AL. More information available from US FCC via Universal Licensing System and Coast Guard Vessel Documentation Center.

Last reported at 2017-Jan-04 19:13 UTC. Time now 2017-Mar-25 23:47 UTC.
Position N 29°58' W 090°15'.
Warning: this ship's position is months out of date.

Length 21 m.

MMSI: 366976750.

Date/timePositionNaut miles runAvg speedWind from/ knotsBaromVisibWave heightAir tempDewpointWater temp
2017-Jan-04 19:13N 29°58' W 090°15'0 0.1
2017-Jan-04 18:32N 29°58' W 090°15'3 1.3
2017-Jan-04 16:19N 29°56' W 090°13'2 2.6
2017-Jan-04 15:24N 29°57' W 090°10'2 1.5
2017-Jan-04 14:22N 29°57' W 090°08'0 0.3
2017-Jan-04 13:25N 29°57' W 090°08'2 2.6
2017-Jan-04 12:29N 29°56' W 090°11'4 3.8
2017-Jan-04 11:26N 29°58' W 090°15'0 0.1
2017-Jan-04 10:33N 29°58' W 090°15'0 0.0
2017-Jan-04 09:13N 29°58' W 090°15'0 0.1
2017-Jan-04 08:27N 29°58' W 090°15'1 0.3
2017-Jan-04 04:27N 29°58' W 090°14'0 0.0
2017-Jan-04 03:32N 29°58' W 090°14'1 0.3
2017-Jan-04 00:30N 29°58' W 090°15'1 0.5
2017-Jan-03 23:14N 29°58' W 090°14'0 0.1
2017-Jan-03 22:33N 29°58' W 090°14'1 0.9
2017-Jan-03 21:30N 29°58' W 090°15'0 0.5
2017-Jan-03 20:34N 29°58' W 090°15'0 0.1
2017-Jan-03 19:33N 29°58' W 090°15'0 0.0
2017-Jan-03 18:30N 29°58' W 090°15'1 0.5
2017-Jan-03 17:31N 29°58' W 090°15'0 0.0
2017-Jan-03 13:04N 29°58' W 090°15'0 0.2
2017-Jan-03 12:23N 29°58' W 090°15'0 0.0
2017-Jan-03 11:33N 29°58' W 090°15'0 0.0
2017-Jan-03 10:34N 29°58' W 090°15'0 0.0
2017-Jan-03 09:32N 29°58' W 090°15'0 0.0
2017-Jan-03 05:11N 29°58' W 090°15'0 0.2
2017-Jan-03 04:32N 29°58' W 090°15'0 0.2
2017-Jan-03 03:33N 29°58' W 090°15'0 0.1
2017-Jan-03 02:22N 29°58' W 090°15'3 3.9
2017-Jan-03 01:28N 29°56' W 090°12'3 1.4
2017-Jan-02 23:22N 29°56' W 090°08'3 3.2
2017-Jan-02 22:32N 29°56' W 090°11'4 4.3
2017-Jan-02 21:34N 29°58' W 090°15'0 0.3
2017-Jan-02 20:34N 29°58' W 090°15'0 0.2
2017-Jan-02 19:28N 29°58' W 090°15'0 0.0
2017-Jan-02 09:31N 29°58' W 090°15'1 0.1
2017-Jan-02 01:23N 29°58' W 090°14'2 2.8
2017-Jan-02 00:33N 29°56' W 090°13'4 3.8
2017-Jan-01 23:33N 29°57' W 090°09'1 0.3
2017-Jan-01 19:33N 29°56' W 090°08'2 1.5
2017-Jan-01 18:26N 29°57' W 090°10'4 4.2
2017-Jan-01 17:28N 29°58' W 090°15'1 0.5
2017-Jan-01 16:30N 29°58' W 090°14'0 0.3
2017-Jan-01 15:14N 29°58' W 090°14'0 0.2
2017-Jan-01 14:33N 29°58' W 090°14'1 0.6
2017-Jan-01 13:33N 29°58' W 090°15'0 0.0
2017-Jan-01 12:33N 29°58' W 090°15'0 0.0
2017-Jan-01 11:33N 29°58' W 090°15'0 0.5
2017-Jan-01 10:31N 29°58' W 090°15'0 0.1
2017-Jan-01 09:34N 29°58' W 090°14'0 0.0
2017-Jan-01 08:33N 29°58' W 090°14'0 0.0
2017-Jan-01 07:33N 29°58' W 090°14'0 0.0
2017-Jan-01 06:33N 29°58' W 090°14'0 0.0
2017-Jan-01 05:33N 29°58' W 090°14'1 0.1
2016-Dec-31 19:14N 29°58' W 090°15'0 0.1
2016-Dec-31 18:33N 29°58' W 090°15'0 0.0
2016-Dec-31 17:05N 29°58' W 090°15'0 0.0
2016-Dec-31 15:17N 29°58' W 090°15'1 0.8
2016-Dec-31 14:31N 29°58' W 090°14'1 0.6
2016-Dec-31 13:16N 29°58' W 090°15'1 0.4
2016-Dec-31 11:29N 29°58' W 090°14'1 0.0
2016-Dec-30 20:25N 29°58' W 090°15'1 0.1
2016-Dec-30 09:34N 29°57' W 090°14'0 0.2
2016-Dec-30 08:30N 29°57' W 090°14'1 0.8
2016-Dec-30 07:27N 29°58' W 090°15'0 0.3
2016-Dec-30 06:03N 29°58' W 090°15'0 0.4
2016-Dec-30 05:12N 29°58' W 090°15'1 0.1
2016-Dec-30 00:14N 29°58' W 090°15'2 1.8
2016-Dec-29 23:13N 29°57' W 090°14'1 0.4
2016-Dec-29 21:33N 29°58' W 090°14'0 0.0
2016-Dec-29 20:31N 29°58' W 090°14'0 0.1
2016-Dec-29 19:22N 29°58' W 090°14'0 0.5
2016-Dec-29 18:33N 29°57' W 090°14'0 0.2
2016-Dec-29 17:31N 29°57' W 090°14'0 0.1
2016-Dec-29 16:31N 29°57' W 090°14'1 1.3
2016-Dec-29 15:23N 29°58' W 090°15'0 0.5
2016-Dec-29 14:31N 29°58' W 090°14'0 0.5
2016-Dec-29 13:33N 29°58' W 090°15'0 0.1
2016-Dec-29 12:33N 29°58' W 090°15'2 1.8
2016-Dec-29 11:24N 29°56' W 090°13'2 1.9
2016-Dec-29 10:30N 29°58' W 090°14'1 0.3
2016-Dec-29 08:33N 29°57' W 090°14'1 0.2
2016-Dec-29 04:31N 29°58' W 090°14'0 0.1
2016-Dec-29 01:11N 29°58' W 090°14'1 1.0
2016-Dec-29 00:32N 29°58' W 090°15'0 0.1
2016-Dec-28 23:32N 29°58' W 090°15'0 0.2
2016-Dec-28 21:09N 29°58' W 090°14'0 0.1
2016-Dec-28 17:33N 29°58' W 090°15'0 0.2
2016-Dec-28 16:25N 29°58' W 090°15'0 0.0
2016-Dec-28 13:07N 29°58' W 090°15'0 0.0
2016-Dec-28 03:06N 29°58' W 090°15'0 0.0
2016-Dec-27 20:26N 29°58' W 090°15'4 3.5
2016-Dec-27 19:23N 29°56' W 090°12'3 0.2
2016-Dec-27 03:33N 29°57' W 090°08'6 3.7
2016-Dec-27 02:03N 29°58' W 090°15'0 0.0
2016-Dec-27 01:29N 29°58' W 090°15'  

Dump ship's entire track history